createdAt,value
2018-09-12T00:02:13.274Z,8.93
2018-09-12T00:04:41.769Z,6.10
2018-09-12T00:07:10.081Z,7.70
2018-09-12T00:09:38.521Z,7.60
2018-09-12T00:12:06.832Z,10.20
2018-09-12T00:14:35.341Z,9.87
2018-09-12T00:17:03.751Z,7.87
2018-09-12T00:19:32.070Z,7.60
2018-09-12T00:22:00.437Z,7.67
2018-09-12T00:24:28.746Z,7.03
2018-09-12T00:26:57.157Z,7.50
2018-09-12T00:29:25.491Z,10.73
2018-09-12T00:31:54.180Z,11.33
2018-09-12T00:34:22.525Z,7.20
2018-09-12T00:36:50.838Z,8.33
2018-09-12T00:39:19.360Z,6.90
2018-09-12T00:41:47.934Z,8.00
2018-09-12T00:44:16.419Z,8.87
2018-09-12T00:46:44.811Z,7.30
2018-09-12T00:49:13.306Z,6.73
2018-09-12T00:51:41.913Z,11.03
2018-09-12T00:54:10.411Z,6.90
2018-09-12T00:56:38.933Z,6.90
2018-09-12T00:59:07.407Z,13.07
2018-09-12T01:01:35.831Z,8.77
2018-09-12T01:04:04.140Z,13.13
2018-09-12T01:06:32.862Z,12.10
2018-09-12T01:09:01.334Z,7.20
2018-09-12T01:11:29.853Z,16.00
2018-09-12T01:13:58.206Z,10.37
2018-09-12T01:16:26.713Z,10.40
2018-09-12T01:18:55.134Z,14.40
2018-09-12T01:21:23.548Z,7.57
2018-09-12T01:23:51.877Z,16.33
2018-09-12T01:26:20.229Z,7.00
2018-09-12T01:28:48.801Z,9.77
2018-09-12T01:31:17.128Z,12.47
2018-09-12T01:33:45.470Z,10.03
2018-09-12T01:36:13.814Z,7.30
2018-09-12T01:38:42.155Z,8.53
2018-09-12T01:41:10.622Z,12.03
2018-09-12T01:43:38.989Z,8.73
2018-09-12T01:46:07.329Z,7.60
2018-09-12T01:48:35.921Z,7.17
2018-09-12T01:51:04.369Z,7.27
2018-09-12T01:53:32.690Z,8.70
2018-09-12T01:56:01.201Z,8.67
2018-09-12T01:58:29.557Z,7.10
2018-09-12T02:00:57.956Z,8.83
2018-09-12T02:03:26.413Z,9.07
2018-09-12T02:05:55.081Z,7.20
2018-09-12T02:08:23.457Z,7.83
2018-09-12T02:10:51.879Z,9.43
2018-09-12T02:13:20.197Z,8.30
2018-09-12T02:15:50.994Z,5.73
2018-09-12T02:18:19.353Z,9.10
2018-09-12T02:20:47.742Z,8.07
2018-09-12T02:23:16.117Z,7.77
2018-09-12T02:25:44.557Z,6.50
2018-09-12T02:28:12.893Z,6.60
2018-09-12T02:30:41.269Z,5.60
2018-09-12T02:33:09.603Z,7.00
2018-09-12T02:35:44.049Z,9.57
2018-09-12T02:38:12.392Z,7.70
2018-09-12T02:40:40.821Z,8.23
2018-09-12T02:43:09.411Z,10.03
2018-09-12T02:45:37.744Z,7.33
2018-09-12T02:48:06.308Z,6.70
2018-09-12T02:50:34.698Z,7.83
2018-09-12T02:53:03.139Z,10.13
2018-09-12T02:55:31.476Z,9.63
2018-09-12T02:57:59.863Z,9.20
2018-09-12T03:00:28.185Z,8.90
2018-09-12T03:02:56.609Z,9.47
2018-09-12T03:05:25.054Z,7.13
2018-09-12T03:07:53.571Z,10.90
2018-09-12T03:10:21.834Z,13.93
2018-09-12T03:12:50.215Z,8.40
2018-09-12T03:15:18.590Z,8.67
2018-09-12T03:17:46.918Z,7.67
2018-09-12T03:20:15.242Z,7.57
2018-09-12T03:22:43.793Z,8.40
2018-09-12T03:25:12.141Z,8.67
2018-09-12T03:27:40.570Z,9.23
2018-09-12T03:30:08.974Z,8.40
2018-09-12T03:32:37.326Z,6.97
2018-09-12T03:35:06.217Z,12.53
2018-09-12T03:37:34.786Z,6.50
2018-09-12T03:40:03.267Z,7.97
2018-09-12T03:42:31.657Z,8.57
2018-09-12T03:45:00.163Z,7.73
2018-09-12T03:47:28.667Z,6.90
2018-09-12T03:49:57.028Z,6.90
2018-09-12T03:52:25.538Z,12.40
2018-09-12T03:54:53.873Z,7.93
2018-09-12T03:57:22.218Z,10.00
2018-09-12T03:59:50.550Z,7.90
2018-09-12T04:02:18.973Z,7.93
2018-09-12T04:04:47.538Z,7.70
2018-09-12T04:07:16.034Z,10.03
2018-09-12T04:09:44.514Z,6.97
2018-09-12T04:12:13.022Z,10.53
2018-09-12T04:14:41.375Z,6.80
2018-09-12T04:17:09.821Z,10.30
2018-09-12T04:19:38.222Z,6.53
2018-09-12T04:22:07.016Z,7.67
2018-09-12T04:24:35.350Z,7.77
2018-09-12T04:27:03.836Z,7.70
2018-09-12T04:29:32.257Z,7.93
2018-09-12T04:32:01.693Z,9.17
2018-09-12T04:34:30.033Z,10.90
2018-09-12T04:36:58.442Z,10.30
2018-09-12T04:39:26.738Z,9.73
2018-09-12T04:41:55.114Z,7.07
2018-09-12T04:44:23.664Z,8.00
2018-09-12T04:46:52.025Z,8.63
2018-09-12T04:49:20.525Z,10.03
2018-09-12T04:51:48.833Z,11.30
2018-09-12T04:54:17.385Z,10.30
2018-09-12T04:56:45.833Z,10.80
2018-09-12T04:59:14.392Z,11.17
2018-09-12T05:01:42.816Z,11.03
2018-09-12T05:04:11.249Z,8.63
2018-09-12T05:06:39.582Z,10.10
2018-09-12T05:09:09.755Z,10.70
2018-09-12T05:11:38.270Z,10.07
2018-09-12T05:14:06.770Z,10.37
2018-09-12T05:16:35.229Z,8.57
2018-09-12T05:19:03.573Z,9.27
2018-09-12T05:21:31.952Z,9.63
2018-09-12T05:24:00.330Z,12.37
2018-09-12T05:26:28.693Z,8.00
2018-09-12T05:28:57.093Z,8.87
2018-09-12T05:31:25.433Z,13.50
2018-09-12T05:33:54.046Z,8.97
2018-09-12T05:36:22.584Z,14.27
2018-09-12T05:38:50.849Z,11.60
2018-09-12T05:41:19.277Z,10.30
2018-09-12T05:43:47.809Z,10.33
2018-09-12T05:46:16.291Z,8.57
2018-09-12T05:48:44.743Z,11.13
2018-09-12T05:51:13.219Z,10.80
2018-09-12T05:53:41.572Z,13.50
2018-09-12T05:56:10.177Z,10.57
2018-09-12T05:58:38.487Z,11.53
2018-09-12T06:01:06.862Z,13.70
2018-09-12T06:03:35.250Z,17.90
2018-09-12T06:06:03.686Z,11.37
2018-09-12T06:08:34.754Z,13.80
2018-09-12T06:11:03.268Z,10.10
2018-09-12T06:13:31.732Z,10.60
2018-09-12T06:16:00.150Z,11.00
2018-09-12T06:18:28.558Z,9.13
2018-09-12T06:20:56.989Z,15.00
2018-09-12T06:23:25.334Z,10.00
2018-09-12T06:25:54.977Z,7.93
2018-09-12T06:28:23.294Z,9.20
2018-09-12T06:30:51.926Z,12.60
2018-09-12T06:33:20.357Z,9.00
2018-09-12T06:35:48.805Z,12.43
2018-09-12T06:38:17.248Z,9.43
2018-09-12T06:40:45.718Z,13.90
2018-09-12T06:43:14.151Z,12.70
2018-09-12T06:45:42.467Z,12.00
2018-09-12T06:48:10.855Z,15.13
2018-09-12T06:50:39.283Z,12.10
2018-09-12T06:53:07.655Z,12.00
2018-09-12T06:55:36.217Z,16.13
2018-09-12T06:58:04.554Z,8.90
2018-09-12T07:00:33.034Z,8.47
2018-09-12T07:03:01.426Z,10.20
2018-09-12T07:05:29.903Z,15.50
2018-09-12T07:07:58.230Z,10.80
2018-09-12T07:10:26.778Z,10.43
2018-09-12T07:12:55.445Z,8.67
2018-09-12T07:15:23.813Z,10.87
2018-09-12T07:17:52.597Z,10.80
2018-09-12T07:20:20.935Z,9.10
2018-09-12T07:22:49.238Z,9.00
2018-09-12T07:25:17.808Z,9.13
2018-09-12T07:27:46.305Z,9.27
2018-09-12T07:30:14.665Z,15.13
2018-09-12T07:32:43.141Z,12.53
2018-09-12T07:35:18.174Z,9.90
2018-09-12T07:37:46.690Z,8.33
2018-09-12T07:40:15.013Z,15.87
2018-09-12T07:42:43.369Z,10.30
2018-09-12T07:45:12.031Z,10.60
2018-09-12T07:47:40.495Z,8.47
2018-09-12T07:50:08.834Z,10.57
2018-09-12T07:52:37.397Z,18.67
2018-09-12T07:55:06.455Z,9.33
2018-09-12T07:57:35.784Z,9.70
2018-09-12T08:00:04.541Z,11.20
2018-09-12T08:02:32.983Z,10.93
2018-09-12T08:05:08.330Z,11.63
2018-09-12T08:07:36.701Z,13.40
2018-09-12T08:10:05.817Z,16.10
2018-09-12T08:12:34.174Z,9.10
2018-09-12T08:15:02.577Z,9.67
2018-09-12T08:17:30.980Z,12.00
2018-09-12T08:19:59.359Z,10.20
2018-09-12T08:22:27.818Z,10.10
2018-09-12T08:24:56.254Z,11.57
2018-09-12T08:27:24.646Z,9.87
2018-09-12T08:29:53.005Z,9.60
2018-09-12T08:32:21.423Z,11.67
2018-09-12T08:34:49.818Z,13.40
2018-09-12T08:37:18.311Z,13.50
2018-09-12T08:39:46.734Z,12.70
2018-09-12T08:42:15.373Z,15.50
2018-09-12T08:44:43.761Z,11.77
2018-09-12T08:47:12.210Z,10.03
2018-09-12T08:49:40.648Z,7.80
2018-09-12T08:52:08.994Z,8.00
2018-09-12T08:54:37.344Z,11.80
2018-09-12T08:57:05.784Z,8.33
2018-09-12T08:59:34.303Z,14.00
2018-09-12T09:02:02.737Z,10.20
2018-09-12T09:04:31.306Z,12.87
2018-09-12T09:06:59.702Z,9.77
2018-09-12T09:09:28.100Z,9.63
2018-09-12T09:11:56.741Z,9.67
2018-09-12T09:14:25.333Z,9.67
2018-09-12T09:16:53.712Z,12.90
2018-09-12T09:19:22.200Z,13.40
2018-09-12T09:21:50.597Z,6.73
2018-09-12T09:24:18.954Z,11.27
2018-09-12T09:26:47.379Z,9.13
2018-09-12T09:29:15.860Z,10.43
2018-09-12T09:31:44.461Z,11.93
2018-09-12T09:34:12.802Z,10.33
2018-09-12T09:36:41.262Z,7.20
2018-09-12T09:39:11.159Z,7.80
2018-09-12T09:41:39.785Z,10.97
2018-09-12T09:44:08.156Z,8.90
2018-09-12T09:46:36.533Z,10.30
2018-09-12T09:49:05.182Z,8.87
2018-09-12T09:51:33.639Z,7.77
2018-09-12T09:54:02.062Z,4.80
2018-09-12T09:56:30.477Z,5.00
2018-09-12T09:58:58.869Z,6.20
2018-09-12T10:01:32.580Z,5.70
2018-09-12T10:04:06.355Z,5.37
2018-09-12T10:06:40.029Z,5.07
2018-09-12T10:09:14.463Z,5.77
2018-09-12T10:11:43.538Z,5.33
2018-09-12T10:14:11.835Z,6.27
2018-09-12T10:16:40.272Z,5.10
2018-09-12T10:19:08.704Z,8.83
2018-09-12T10:21:37.374Z,5.73
2018-09-12T10:24:06.021Z,10.20
2018-09-12T10:26:34.338Z,6.87
2018-09-12T10:29:02.697Z,9.90
2018-09-12T10:31:31.130Z,5.93
2018-09-12T10:33:59.505Z,4.27
2018-09-12T10:36:27.949Z,5.33
2018-09-12T10:38:56.316Z,7.00
2018-09-12T10:41:24.902Z,5.00
2018-09-12T10:43:53.426Z,4.50
2018-09-12T10:46:21.889Z,9.63
2018-09-12T10:48:50.233Z,4.73
2018-09-12T10:51:18.837Z,12.70
2018-09-12T10:53:47.285Z,5.30
2018-09-12T10:56:15.739Z,4.70
2018-09-12T10:58:44.074Z,6.00
2018-09-12T11:01:12.545Z,7.63
2018-09-12T11:03:41.018Z,7.73
2018-09-12T11:06:09.410Z,6.27
2018-09-12T11:08:37.761Z,4.57
2018-09-12T11:11:06.337Z,5.10
2018-09-12T11:13:34.720Z,5.97
2018-09-12T11:16:03.329Z,4.33
2018-09-12T11:18:31.986Z,5.00
2018-09-12T11:21:00.361Z,8.93
2018-09-12T11:23:28.727Z,5.67
2018-09-12T11:25:57.042Z,4.40
2018-09-12T11:28:27.461Z,6.33
2018-09-12T11:30:55.753Z,4.97
2018-09-12T11:33:24.126Z,6.90
2018-09-12T11:35:52.563Z,4.90
2018-09-12T11:38:21.353Z,6.50
2018-09-12T11:40:49.739Z,4.47
2018-09-12T11:43:18.037Z,4.67
2018-09-12T11:45:46.546Z,7.97
2018-09-12T11:48:15.216Z,5.63
2018-09-12T11:50:43.566Z,4.43
2018-09-12T11:53:11.938Z,5.23
2018-09-12T11:55:40.282Z,4.63
2018-09-12T11:58:08.593Z,4.47
2018-09-12T12:00:37.049Z,5.13
2018-09-12T12:03:05.725Z,6.60
2018-09-12T12:05:34.317Z,6.03
2018-09-12T12:08:02.654Z,6.50
2018-09-12T12:10:31.098Z,6.83
2018-09-12T12:12:59.639Z,5.60
2018-09-12T12:15:28.156Z,4.27
2018-09-12T12:17:56.443Z,4.47
2018-09-12T12:20:24.767Z,4.70
2018-09-12T12:22:53.242Z,4.57
2018-09-12T12:25:21.668Z,5.27
2018-09-12T12:27:50.023Z,4.93
2018-09-12T12:30:19.459Z,4.53
2018-09-12T12:32:47.805Z,3.50
2018-09-12T12:35:16.140Z,2.97
2018-09-12T12:37:44.646Z,2.83
2018-09-12T12:40:13.005Z,3.17
2018-09-12T12:42:41.389Z,3.40
2018-09-12T12:45:09.733Z,3.83
2018-09-12T12:47:38.247Z,4.60
2018-09-12T12:50:06.894Z,8.23
2018-09-12T12:52:35.250Z,4.23
2018-09-12T12:55:03.734Z,4.10
2018-09-12T12:57:32.214Z,3.60
2018-09-12T13:00:00.577Z,3.40
2018-09-12T13:02:28.957Z,4.27
2018-09-12T13:04:57.444Z,3.13
2018-09-12T13:07:25.921Z,4.03
2018-09-12T13:09:54.295Z,3.43
2018-09-12T13:12:22.642Z,3.17
2018-09-12T13:14:50.994Z,3.00
2018-09-12T13:17:19.403Z,4.13
2018-09-12T13:19:48.110Z,6.50
2018-09-12T13:22:16.450Z,3.97
2018-09-12T13:24:44.819Z,3.53
2018-09-12T13:27:13.221Z,2.90
2018-09-12T13:29:41.554Z,4.07
2018-09-12T13:32:09.884Z,3.33
2018-09-12T13:34:38.311Z,4.07
2018-09-12T13:37:06.603Z,3.53
2018-09-12T13:39:34.962Z,4.00
2018-09-12T13:42:03.375Z,4.57
2018-09-12T13:44:31.784Z,3.80
2018-09-12T13:47:00.078Z,3.40
2018-09-12T13:49:28.533Z,4.00
2018-09-12T13:51:56.892Z,3.90
2018-09-12T13:54:25.298Z,3.47
2018-09-12T13:56:53.776Z,3.20
2018-09-12T13:59:22.105Z,3.00
2018-09-12T14:01:50.551Z,3.37
2018-09-12T14:04:19.203Z,4.83
2018-09-12T14:06:47.857Z,4.77
2018-09-12T14:09:16.203Z,3.60
2018-09-12T14:11:44.637Z,3.63
2018-09-12T14:14:13.047Z,4.53
2018-09-12T14:16:41.519Z,3.60
2018-09-12T14:19:09.879Z,3.50
2018-09-12T14:21:38.422Z,3.30
2018-09-12T14:24:06.909Z,4.40
2018-09-12T14:26:35.415Z,4.33
2018-09-12T14:29:03.818Z,3.97
2018-09-12T14:31:32.164Z,3.73
2018-09-12T14:34:00.692Z,4.00
2018-09-12T14:36:29.315Z,3.93
2018-09-12T14:38:57.627Z,3.63
2018-09-12T14:41:26.080Z,3.40
2018-09-12T14:43:54.486Z,4.87
2018-09-12T14:46:23.021Z,4.23
2018-09-12T14:48:51.440Z,5.40
2018-09-12T14:51:19.805Z,4.33
2018-09-12T14:53:48.166Z,5.43
2018-09-12T14:56:16.595Z,7.53
2018-09-12T14:58:44.962Z,5.60
2018-09-12T15:01:13.313Z,4.33
2018-09-12T15:03:41.781Z,6.90
2018-09-12T15:06:10.234Z,3.63
2018-09-12T15:08:38.661Z,4.17
2018-09-12T15:11:06.986Z,3.70
2018-09-12T15:13:35.534Z,3.90
2018-09-12T15:16:03.991Z,3.83
2018-09-12T15:18:32.589Z,3.83
2018-09-12T15:21:00.938Z,5.30
2018-09-12T15:23:29.306Z,3.63
2018-09-12T15:25:57.748Z,3.50
2018-09-12T15:28:26.135Z,4.60
2018-09-12T15:30:54.570Z,5.63
2018-09-12T15:33:22.949Z,4.23
2018-09-12T15:35:51.429Z,4.10
2018-09-12T15:38:19.775Z,3.93
2018-09-12T15:40:48.651Z,4.00
2018-09-12T15:43:16.979Z,3.87
2018-09-12T15:45:45.572Z,4.50
2018-09-12T15:48:13.984Z,3.73
2018-09-12T15:50:42.328Z,3.67
2018-09-12T15:53:10.760Z,6.93
2018-09-12T15:55:40.455Z,4.90
2018-09-12T15:58:08.799Z,5.90
2018-09-12T16:00:37.313Z,5.57
2018-09-12T16:03:05.819Z,3.83
2018-09-12T16:05:34.156Z,3.67
2018-09-12T16:08:02.617Z,4.30
2018-09-12T16:10:30.976Z,4.40
2018-09-12T16:12:59.351Z,7.07
2018-09-12T16:15:27.907Z,7.00
2018-09-12T16:17:56.434Z,4.80
2018-09-12T16:20:25.118Z,7.70
2018-09-12T16:22:53.432Z,4.80
2018-09-12T16:25:21.833Z,4.03
2018-09-12T16:27:50.225Z,7.57
2018-09-12T16:30:18.762Z,4.27
2018-09-12T16:32:47.221Z,4.57
2018-09-12T16:35:15.429Z,4.60
2018-09-12T16:37:43.785Z,4.23
2018-09-12T16:40:12.225Z,6.00
2018-09-12T16:42:40.632Z,5.97
2018-09-12T16:45:08.950Z,5.27
2018-09-12T16:47:37.325Z,7.60
2018-09-12T16:50:06.000Z,6.63
2018-09-12T16:52:34.372Z,7.73
2018-09-12T16:55:02.724Z,5.30
2018-09-12T16:57:31.086Z,7.03
2018-09-12T16:59:59.405Z,5.90
2018-09-12T17:02:28.058Z,5.70
2018-09-12T17:04:56.681Z,7.40
2018-09-12T17:07:25.129Z,5.40
2018-09-12T17:09:53.466Z,5.10
2018-09-12T17:12:21.818Z,8.83
2018-09-12T17:14:50.195Z,6.60
2018-09-12T17:17:18.855Z,6.53
2018-09-12T17:19:47.362Z,6.13
2018-09-12T17:22:15.901Z,4.37
2018-09-12T17:24:44.314Z,6.60
2018-09-12T17:27:12.808Z,4.83
2018-09-12T17:29:41.398Z,4.43
2018-09-12T17:32:09.977Z,4.33
2018-09-12T17:34:38.479Z,9.03
2018-09-12T17:37:06.810Z,4.87
2018-09-12T17:39:35.202Z,5.80
2018-09-12T17:42:03.578Z,4.97
2018-09-12T17:44:31.957Z,5.17
2018-09-12T17:47:00.324Z,5.33
2018-09-12T17:49:28.893Z,5.00
2018-09-12T17:51:57.306Z,8.07
2018-09-12T17:54:25.844Z,7.00
2018-09-12T17:56:54.261Z,6.63
2018-09-12T17:59:22.659Z,8.03
2018-09-12T18:01:51.014Z,6.10
2018-09-12T18:04:19.698Z,6.20
2018-09-12T18:06:48.224Z,7.30
2018-09-12T18:09:16.632Z,7.60
2018-09-12T18:11:45.053Z,9.23
2018-09-12T18:14:13.478Z,7.80
2018-09-12T18:16:42.042Z,6.80
2018-09-12T18:19:10.590Z,11.33
2018-09-12T18:21:39.123Z,5.37
2018-09-12T18:24:07.871Z,6.60
2018-09-12T18:26:36.338Z,5.77
2018-09-12T18:29:04.693Z,6.43
2018-09-12T18:31:33.090Z,6.00
2018-09-12T18:34:01.489Z,6.37
2018-09-12T18:36:30.142Z,8.93
2018-09-12T18:38:58.553Z,5.63
2018-09-12T18:41:26.952Z,6.10
2018-09-12T18:43:55.364Z,6.77
2018-09-12T18:46:23.903Z,5.63
2018-09-12T18:48:52.358Z,7.43
2018-09-12T18:51:20.823Z,7.40
2018-09-12T18:53:50.308Z,5.40
2018-09-12T18:56:18.687Z,6.03
2018-09-12T18:58:47.081Z,7.03
2018-09-12T19:01:15.541Z,7.80
2018-09-12T19:03:43.901Z,6.67
2018-09-12T19:06:12.482Z,9.47
2018-09-12T19:08:40.916Z,7.57
2018-09-12T19:11:09.530Z,6.90
2018-09-12T19:13:44.514Z,7.73
2018-09-12T19:16:13.113Z,8.40
2018-09-12T19:18:41.526Z,8.53
2018-09-12T19:21:10.123Z,9.90
2018-09-12T19:23:38.538Z,8.17
2018-09-12T19:26:06.991Z,9.50
2018-09-12T19:28:35.528Z,10.03
2018-09-12T19:31:03.961Z,8.40
2018-09-12T19:33:32.501Z,6.27
2018-09-12T19:36:01.282Z,8.20
2018-09-12T19:38:29.657Z,10.70
2018-09-12T19:40:58.168Z,16.43
2018-09-12T19:43:26.630Z,7.00
2018-09-12T19:45:54.984Z,7.60
2018-09-12T19:48:23.394Z,13.73
2018-09-12T19:50:51.874Z,10.80
2018-09-12T19:53:20.246Z,7.17
2018-09-12T19:55:48.666Z,7.83
2018-09-12T19:58:17.042Z,6.63
2018-09-12T20:00:45.422Z,6.30
2018-09-12T20:03:14.745Z,9.10
2018-09-12T20:05:43.395Z,8.13
2018-09-12T20:08:11.838Z,7.27
2018-09-12T20:10:40.274Z,9.60
2018-09-12T20:13:08.854Z,9.97
2018-09-12T20:15:37.326Z,8.90
2018-09-12T20:18:05.762Z,8.90
2018-09-12T20:20:34.399Z,7.63
2018-09-12T20:23:02.719Z,6.83
2018-09-12T20:25:31.082Z,9.00
2018-09-12T20:27:59.446Z,7.13
2018-09-12T20:30:27.909Z,11.80
2018-09-12T20:32:56.346Z,9.53
2018-09-12T20:35:24.817Z,8.43
2018-09-12T20:37:53.354Z,3.87
2018-09-12T20:40:21.871Z,5.80
2018-09-12T20:42:50.293Z,6.80
2018-09-12T20:45:18.740Z,6.37
2018-09-12T20:47:47.197Z,7.80
2018-09-12T20:50:15.650Z,17.90
2018-09-12T20:52:44.174Z,16.43
2018-09-12T20:55:12.493Z,8.97
2018-09-12T20:57:40.899Z,11.67
2018-09-12T21:00:09.434Z,10.70
2018-09-12T21:02:38.208Z,7.83
2018-09-12T21:05:06.517Z,10.60
2018-09-12T21:07:35.047Z,9.03
2018-09-12T21:10:03.665Z,13.10
2018-09-12T21:12:32.114Z,9.90
2018-09-12T21:15:00.494Z,9.10
2018-09-12T21:17:28.850Z,10.07
2018-09-12T21:19:57.370Z,10.67
2018-09-12T21:22:25.843Z,8.87
2018-09-12T21:24:54.227Z,10.03
2018-09-12T21:27:22.731Z,8.83
2018-09-12T21:29:51.226Z,9.10
2018-09-12T21:32:19.664Z,10.20
2018-09-12T21:34:48.070Z,14.03
2018-09-12T21:37:16.454Z,8.20
2018-09-12T21:39:44.907Z,13.30
2018-09-12T21:42:13.389Z,12.40
2018-09-12T21:44:41.950Z,16.67
2018-09-12T21:47:10.331Z,13.20
2018-09-12T21:49:38.826Z,16.90
2018-09-12T21:52:07.269Z,12.97
2018-09-12T21:54:35.630Z,11.97
2018-09-12T21:57:03.973Z,10.40
2018-09-12T21:59:32.510Z,11.80
2018-09-12T22:02:00.930Z,13.83
2018-09-12T22:04:29.810Z,10.10
2018-09-12T22:06:58.860Z,11.00
2018-09-12T22:09:27.797Z,9.17
2018-09-12T22:11:56.190Z,11.03
2018-09-12T22:14:24.545Z,12.50
2018-09-12T22:16:53.140Z,11.10
2018-09-12T22:19:21.548Z,8.13
2018-09-12T22:21:50.098Z,11.87
2018-09-12T22:24:18.751Z,9.50
2018-09-12T22:26:47.402Z,9.40
2018-09-12T22:29:15.736Z,11.03
2018-09-12T22:31:44.291Z,11.43
2018-09-12T22:34:12.603Z,9.00
2018-09-12T22:36:41.138Z,9.30
2018-09-12T22:39:11.029Z,9.33
2018-09-12T22:41:39.752Z,9.97
2018-09-12T22:44:08.294Z,9.67
2018-09-12T22:46:36.845Z,9.10
2018-09-12T22:49:05.189Z,10.47
2018-09-12T22:51:33.577Z,11.33
2018-09-12T22:54:01.998Z,10.60
2018-09-12T22:56:30.447Z,12.70
2018-09-12T22:58:59.174Z,12.20
2018-09-12T23:01:27.698Z,29.23
2018-09-12T23:03:56.060Z,18.23
2018-09-12T23:06:24.445Z,10.30
2018-09-12T23:08:52.874Z,12.07
2018-09-12T23:11:21.224Z,12.13
2018-09-12T23:13:49.681Z,15.37
2018-09-12T23:16:17.998Z,10.30
2018-09-12T23:18:46.462Z,12.13
2018-09-12T23:21:14.789Z,13.60
2018-09-12T23:23:43.168Z,13.03
2018-09-12T23:26:11.516Z,14.43
2018-09-12T23:28:39.941Z,11.57
2018-09-12T23:31:08.290Z,10.97
2018-09-12T23:33:36.749Z,13.67
2018-09-12T23:36:05.297Z,12.47
2018-09-12T23:38:33.700Z,11.53
2018-09-12T23:41:02.042Z,10.80
2018-09-12T23:43:30.372Z,12.70
2018-09-12T23:45:58.788Z,15.03
2018-09-12T23:48:27.181Z,9.73
2018-09-12T23:50:55.486Z,9.67
2018-09-12T23:53:23.829Z,9.43
2018-09-12T23:55:52.185Z,10.07
2018-09-12T23:58:20.598Z,10.13
